Time;durP1;ratioP1;P1;durP2;ratioP2;P2;SDS_P1;SDS_P2;PMS_P1;PMS_P2;Temp;Humidity;BMP_temperature;BMP_pressure;BME280_temperature;BME280_humidity;BME280_pressure;Samples;Min_cycle;Max_cycle;Signal;HPM_P1;HPM_P2
2023/06/06 00:01:19;;;;;;;3.63;3.33;;;22.10;49.40;;;;;;4931841;28;20458;-82
2023/06/06 00:03:51;;;;;;;3.27;3.00;;;21.90;49.80;;;;;;4928947;29;20469;-84
2023/06/06 00:06:21;;;;;;;3.03;2.73;;;21.80;50.20;;;;;;4924851;29;20445;-81
2023/06/06 00:08:50;;;;;;;2.73;2.53;;;21.70;50.20;;;;;;4932829;29;20486;-83
2023/06/06 00:11:17;;;;;;;2.87;2.63;;;21.70;50.30;;;;;;4934148;29;20458;-82
2023/06/06 00:14:07;;;;;;;3.30;3.00;;;21.60;50.40;;;;;;4928268;28;20555;-83
2023/06/06 00:16:50;;;;;;;2.73;2.50;;;21.70;50.50;;;;;;4925045;29;20447;-84
2023/06/06 00:19:20;;;;;;;3.60;2.80;;;21.70;50.40;;;;;;4929813;28;20996;-82
2023/06/06 00:21:58;;;;;;;3.20;2.73;;;21.60;50.30;;;;;;4937871;29;20537;-81
2023/06/06 00:24:29;;;;;;;3.33;2.87;;;21.60;50.40;;;;;;4951189;28;20462;-81
2023/06/06 00:26:56;;;;;;;6.60;3.17;;;21.60;50.30;;;;;;4935731;28;20474;-83
2023/06/06 00:29:26;;;;;;;4.03;2.97;;;21.50;50.60;;;;;;4946825;28;20482;-81
2023/06/06 00:32:04;;;;;;;2.93;2.70;;;21.40;50.80;;;;;;4930065;28;20485;-85
2023/06/06 00:34:40;;;;;;;3.40;2.57;;;21.40;50.80;;;;;;4897623;29;20540;-85
2023/06/06 00:37:10;;;;;;;3.00;2.53;;;21.40;50.80;;;;;;4929622;29;20468;-85
2023/06/06 00:39:47;;;;;;;3.77;2.83;;;21.40;50.90;;;;;;4928357;28;20481;-85
2023/06/06 00:42:23;;;;;;;3.60;2.53;;;21.40;50.90;;;;;;4932932;29;20449;-82
2023/06/06 00:44:57;;;;;;;3.80;3.00;;;21.40;50.90;;;;;;4931708;29;20500;-84
2023/06/06 00:47:31;;;;;;;4.00;2.90;;;21.40;50.90;;;;;;4950184;28;20465;-82
2023/06/06 00:50:16;;;;;;;3.20;2.87;;;21.30;51.10;;;;;;4937091;29;20500;-83
2023/06/06 00:52:53;;;;;;;3.20;2.73;;;21.20;51.30;;;;;;4956734;28;20455;-84
2023/06/06 00:55:24;;;;;;;3.43;3.13;;;21.20;51.30;;;;;;4947243;29;20469;-83
2023/06/06 00:57:54;;;;;;;4.10;3.20;;;21.20;51.60;;;;;;4971561;28;20468;-83
2023/06/06 01:00:24;;;;;;;4.27;3.27;;;21.10;51.70;;;;;;4953994;28;20466;-84
2023/06/06 01:02:57;;;;;;;2.80;2.60;;;21.00;51.90;;;;;;4932588;29;20513;-83
2023/06/06 01:05:37;;;;;;;4.77;2.60;;;21.00;52.10;;;;;;4928345;29;20985;-83
2023/06/06 01:08:07;;;;;;;3.00;2.70;;;21.00;52.00;;;;;;4927814;29;20474;-85
2023/06/06 01:10:44;;;;;;;3.27;2.97;;;21.00;52.20;;;;;;4927535;29;21120;-82
2023/06/06 01:13:37;;;;;;;2.80;2.60;;;20.90;52.30;;;;;;4922853;29;21753;-81
2023/06/06 01:16:09;;;;;;;4.13;2.40;;;20.80;52.50;;;;;;4941222;28;20465;-85
2023/06/06 01:18:43;;;;;;;2.83;2.63;;;20.70;52.70;;;;;;4927176;28;21051;-84
2023/06/06 01:21:11;;;;;;;3.27;2.97;;;20.70;53.00;;;;;;4927743;29;20470;-82
2023/06/06 01:23:46;;;;;;;3.00;2.73;;;20.60;53.10;;;;;;4924320;29;20617;-85
2023/06/06 01:26:24;;;;;;;3.00;2.70;;;20.60;53.20;;;;;;4922519;29;20592;-84
2023/06/06 01:28:57;;;;;;;3.40;2.70;;;20.60;53.30;;;;;;4931103;29;21278;-82
2023/06/06 01:31:33;;;;;;;3.13;2.60;;;20.60;53.60;;;;;;4924259;29;20532;-82
2023/06/06 01:34:27;;;;;;;2.73;2.53;;;20.60;53.80;;;;;;4920227;29;20474;-85
2023/06/06 01:37:03;;;;;;;2.97;2.73;;;20.60;54.00;;;;;;4922766;29;20532;-82
2023/06/06 01:39:35;;;;;;;3.27;2.97;;;20.50;54.20;;;;;;4924099;29;20763;-84
2023/06/06 01:42:02;;;;;;;2.90;2.70;;;20.50;54.90;;;;;;4922666;29;20442;-85
2023/06/06 01:44:31;;;;;;;3.70;3.10;;;20.50;54.60;;;;;;4939738;28;20469;-85
2023/06/06 01:47:00;;;;;;;3.73;2.73;;;20.50;54.70;;;;;;4927606;29;20572;-82
2023/06/06 01:49:27;;;;;;;4.70;2.90;;;20.40;54.90;;;;;;4927435;29;20493;-85
2023/06/06 01:51:55;;;;;;;3.50;2.80;;;20.40;55.30;;;;;;4926816;29;20852;-84
2023/06/06 01:54:22;;;;;;;3.40;3.10;;;20.40;55.50;;;;;;4932959;29;20483;-81
2023/06/06 01:56:50;;;;;;;2.93;2.73;;;20.40;55.80;;;;;;4947214;28;20960;-83
2023/06/06 01:59:19;;;;;;;3.40;2.77;;;20.30;56.00;;;;;;4923727;28;20524;-85
2023/06/06 02:01:46;;;;;;;3.70;3.40;;;20.30;56.30;;;;;;4930824;28;21461;-82
2023/06/06 02:04:14;;;;;;;2.80;2.60;;;20.30;56.50;;;;;;4927389;28;20474;-81
2023/06/06 02:06:41;;;;;;;3.03;2.73;;;20.30;56.80;;;;;;4928124;29;20458;-85
2023/06/06 02:09:11;;;;;;;2.70;2.50;;;20.30;57.10;;;;;;4927652;29;20652;-83
2023/06/06 02:11:37;;;;;;;4.23;3.00;;;20.30;57.20;;;;;;4945071;28;20459;-83
2023/06/06 02:14:08;;;;;;;3.10;2.80;;;20.40;57.40;;;;;;4931481;28;20485;-84
2023/06/06 02:16:36;;;;;;;5.67;3.30;;;20.20;57.70;;;;;;4930819;29;20573;-83
2023/06/06 02:19:13;;;;;;;4.83;3.10;;;20.20;58.00;;;;;;4928049;29;20531;-82
2023/06/06 02:21:40;;;;;;;4.80;3.03;;;20.30;58.50;;;;;;4924109;29;20470;-83
2023/06/06 02:24:07;;;;;;;2.97;2.67;;;20.10;58.80;;;;;;4922105;29;20465;-82
2023/06/06 02:26:35;;;;;;;3.40;3.10;;;20.00;59.20;;;;;;4937652;28;21086;-84
2023/06/06 02:29:23;;;;;;;4.20;3.13;;;19.90;59.70;;;;;;4923861;29;20486;-84
2023/06/06 02:31:52;;;;;;;3.07;2.80;;;19.80;60.20;;;;;;4934205;29;20450;-84
2023/06/06 02:34:19;;;;;;;3.80;3.37;;;19.70;60.80;;;;;;4926300;29;20498;-85
2023/06/06 02:36:48;;;;;;;4.37;3.27;;;19.60;61.20;;;;;;4927018;29;20597;-82
2023/06/06 02:39:15;;;;;;;5.63;3.30;;;19.60;61.90;;;;;;4919849;29;20474;-84
2023/06/06 02:41:42;;;;;;;3.80;3.07;;;19.60;61.90;;;;;;4927211;29;20485;-82
2023/06/06 02:44:09;;;;;;;4.07;3.70;;;19.60;62.20;;;;;;4920927;29;20531;-84
2023/06/06 02:46:35;;;;;;;3.67;3.00;;;19.60;62.70;;;;;;4920018;29;20465;-83
2023/06/06 02:49:02;;;;;;;3.60;3.30;;;19.50;63.20;;;;;;4926315;29;20513;-83
2023/06/06 02:51:32;;;;;;;3.80;3.47;;;19.40;63.80;;;;;;4924926;29;20456;-83
2023/06/06 02:53:58;;;;;;;4.60;3.70;;;19.40;64.40;;;;;;4923734;29;20462;-83
2023/06/06 02:56:25;;;;;;;3.80;3.40;;;19.40;64.80;;;;;;4924995;29;20468;-83
2023/06/06 02:58:52;;;;;;;4.20;3.33;;;19.40;65.40;;;;;;4926301;29;20551;-82
2023/06/06 03:01:20;;;;;;;7.00;3.67;;;19.30;66.00;;;;;;4941711;28;20799;-84
2023/06/06 03:03:48;;;;;;;5.10;4.07;;;19.30;66.70;;;;;;4955614;28;20441;-84
2023/06/06 03:06:20;;;;;;;3.83;3.40;;;19.30;67.00;;;;;;4928729;29;20465;-83
2023/06/06 03:08:47;;;;;;;3.93;3.20;;;19.30;67.70;;;;;;4925604;29;20469;-84
2023/06/06 03:11:14;;;;;;;4.90;4.00;;;19.20;68.10;;;;;;4929754;29;20446;-84
2023/06/06 03:13:40;;;;;;;5.10;4.07;;;19.20;68.50;;;;;;4943241;28;20482;-81
2023/06/06 03:16:07;;;;;;;4.10;3.73;;;19.20;68.90;;;;;;4961391;28;20474;-82
2023/06/06 03:18:36;;;;;;;2.83;2.63;;;19.20;69.10;;;;;;4949104;28;20509;-83
2023/06/06 03:21:03;;;;;;;3.83;3.43;;;19.20;69.50;;;;;;4933397;29;20501;-86
2023/06/06 03:23:30;;;;;;;5.43;3.83;;;19.20;70.20;;;;;;4940728;28;20462;-85
2023/06/06 03:25:57;;;;;;;4.60;3.10;;;19.20;71.00;;;;;;4928654;29;21174;-84
2023/06/06 03:28:24;;;;;;;5.47;3.63;;;19.10;71.30;;;;;;4927719;28;20466;-84
2023/06/06 03:30:51;;;;;;;4.27;3.87;;;19.10;71.70;;;;;;4929103;29;20455;-83
2023/06/06 03:33:17;;;;;;;6.67;3.97;;;19.10;72.20;;;;;;4925993;29;20857;-85
2023/06/06 03:35:44;;;;;;;4.47;3.60;;;19.10;72.60;;;;;;4927949;29;20479;-83
2023/06/06 03:38:11;;;;;;;8.40;3.90;;;19.10;72.70;;;;;;4929776;28;20478;-85
2023/06/06 03:40:38;;;;;;;5.07;4.27;;;19.10;73.30;;;;;;4927260;29;20588;-85
2023/06/06 03:43:05;;;;;;;4.80;4.17;;;19.00;73.80;;;;;;4926211;29;20528;-84
2023/06/06 03:45:31;;;;;;;3.50;3.20;;;18.90;74.70;;;;;;4924191;29;20825;-83
2023/06/06 03:47:58;;;;;;;4.43;3.87;;;18.90;75.60;;;;;;4924769;29;20576;-82
2023/06/06 03:50:25;;;;;;;4.43;4.03;;;18.80;76.10;;;;;;4936943;28;20466;-85
2023/06/06 03:52:53;;;;;;;4.90;4.40;;;18.80;76.50;;;;;;4924238;29;20472;-84
2023/06/06 03:55:20;;;;;;;4.60;4.10;;;18.80;77.00;;;;;;4921974;29;21311;-81
2023/06/06 03:57:47;;;;;;;5.87;4.27;;;18.80;77.30;;;;;;4923773;28;20614;-83
2023/06/06 04:00:15;;;;;;;4.43;3.97;;;18.80;77.70;;;;;;4939120;28;20453;-81
2023/06/06 04:02:52;;;;;;;6.00;4.00;;;18.90;77.90;;;;;;4942285;28;20465;-83
2023/06/06 04:05:19;;;;;;;4.73;4.00;;;18.90;78.10;;;;;;4939637;28;20489;-84
2023/06/06 04:07:46;;;;;;;4.23;3.83;;;18.90;78.30;;;;;;4926972;28;20529;-81
2023/06/06 04:10:13;;;;;;;5.67;4.00;;;19.10;78.20;;;;;;4927623;29;20533;-84
2023/06/06 04:12:40;;;;;;;5.70;4.60;;;19.10;78.40;;;;;;4930978;29;20465;-81
2023/06/06 04:15:09;;;;;;;4.17;3.80;;;19.00;79.60;;;;;;4935642;29;20501;-83
2023/06/06 04:17:36;;;;;;;5.47;4.27;;;18.90;79.40;;;;;;4929463;29;22398;-83
2023/06/06 04:20:04;;;;;;;5.73;3.80;;;18.90;80.00;;;;;;4928142;28;20472;-84
2023/06/06 04:22:35;;;;;;;5.30;4.80;;;18.90;80.40;;;;;;4925026;29;20462;-83
2023/06/06 04:25:09;;;;;;;5.77;4.50;;;19.00;80.90;;;;;;4933489;29;20473;-84
2023/06/06 04:27:45;;;;;;;4.50;4.10;;;19.30;80.50;;;;;;4931694;28;20469;-84
2023/06/06 04:30:22;;;;;;;5.20;4.70;;;19.10;80.30;;;;;;4925465;29;20868;-82
2023/06/06 04:32:53;;;;;;;5.03;4.53;;;19.10;80.90;;;;;;4939228;28;20545;-84
2023/06/06 04:35:23;;;;;;;7.00;4.77;;;19.00;81.60;;;;;;4944227;28;21253;-81
2023/06/06 04:37:53;;;;;;;6.00;4.43;;;19.00;81.90;;;;;;4939230;28;20481;-82
2023/06/06 04:40:25;;;;;;;6.20;4.53;;;19.20;82.20;;;;;;4962560;28;20532;-83
2023/06/06 04:42:58;;;;;;;6.30;4.37;;;19.10;82.10;;;;;;4941560;29;20437;-85
2023/06/06 04:45:32;;;;;;;6.40;4.47;;;19.10;82.30;;;;;;4950075;28;20457;-81
2023/06/06 04:48:02;;;;;;;4.40;4.00;;;19.20;83.00;;;;;;4953209;28;20480;-83
2023/06/06 04:50:29;;;;;;;7.40;4.90;;;19.20;82.90;;;;;;4937147;29;20460;-82
2023/06/06 04:52:58;;;;;;;5.60;4.87;;;19.20;83.00;;;;;;4940026;29;20563;-86
2023/06/06 04:55:27;;;;;;;7.00;4.70;;;19.10;83.60;;;;;;4937389;29;20489;-85
2023/06/06 04:57:55;;;;;;;6.73;5.37;;;19.20;84.00;;;;;;4938120;28;20496;-83
2023/06/06 05:00:23;;;;;;;5.53;5.03;;;19.30;84.20;;;;;;4938117;29;20465;-83
2023/06/06 05:02:52;;;;;;;8.90;4.70;;;19.50;84.00;;;;;;4934843;29;20467;-84
2023/06/06 05:05:21;;;;;;;6.20;5.07;;;19.60;83.20;;;;;;4927555;28;21050;-85
2023/06/06 05:07:48;;;;;;;6.07;4.97;;;19.40;82.80;;;;;;4937682;28;20473;-83
2023/06/06 05:10:15;;;;;;;5.60;4.77;;;19.40;83.30;;;;;;4926097;29;20467;-83
2023/06/06 05:12:51;;;;;;;5.67;4.90;;;19.70;83.10;;;;;;4928386;29;20520;-85
2023/06/06 05:15:18;;;;;;;7.00;5.50;;;20.00;81.20;;;;;;4928351;29;20517;-83
2023/06/06 05:17:56;;;;;;;7.60;6.13;;;19.80;81.10;;;;;;4946522;28;20475;-84
2023/06/06 05:20:26;;;;;;;6.33;5.73;;;19.60;82.10;;;;;;4932193;28;20493;-84
2023/06/06 05:22:53;;;;;;;7.87;5.20;;;19.70;83.10;;;;;;4932009;29;20496;-85
2023/06/06 05:25:23;;;;;;;6.20;5.10;;;19.70;82.20;;;;;;4932385;29;20461;-83
2023/06/06 05:27:51;;;;;;;6.53;4.93;;;19.60;82.60;;;;;;4934093;29;21532;-83
2023/06/06 05:30:21;;;;;;;8.30;5.87;;;19.70;83.20;;;;;;4933646;29;20433;-81
2023/06/06 05:32:48;;;;;;;5.50;4.70;;;19.80;82.40;;;;;;4930053;29;20474;-85
2023/06/06 05:35:15;;;;;;;7.37;5.20;;;19.80;81.70;;;;;;4932302;29;20492;-83
2023/06/06 05:37:42;;;;;;;7.77;5.67;;;19.60;82.50;;;;;;4934645;28;20461;-83
2023/06/06 05:40:09;;;;;;;8.00;5.70;;;19.60;83.40;;;;;;4936012;28;20479;-83
2023/06/06 05:42:37;;;;;;;6.93;5.40;;;19.70;83.90;;;;;;4937893;29;20442;-84
2023/06/06 05:45:05;;;;;;;8.63;5.60;;;19.90;83.30;;;;;;4936448;29;20488;-84
2023/06/06 05:47:32;;;;;;;5.80;5.20;;;19.80;83.30;;;;;;4931710;29;21162;-82
2023/06/06 05:50:02;;;;;;;8.53;5.90;;;19.70;84.10;;;;;;4935699;29;20484;-84
2023/06/06 05:52:28;;;;;;;6.60;5.73;;;19.80;84.60;;;;;;4934847;29;20469;-82
2023/06/06 05:55:05;;;;;;;8.77;6.40;;;20.10;83.60;;;;;;4935978;29;20480;-85
2023/06/06 05:57:32;;;;;;;6.80;5.57;;;20.00;83.10;;;;;;4951675;28;20894;-84
2023/06/06 06:00:00;;;;;;;5.77;4.83;;;20.10;82.20;;;;;;4939881;29;20476;-82
2023/06/06 06:02:28;;;;;;;6.10;4.77;;;20.00;81.70;;;;;;4938085;28;20450;-83
2023/06/06 06:04:56;;;;;;;6.00;5.40;;;20.00;81.20;;;;;;4939716;29;20473;-82
2023/06/06 06:07:28;;;;;;;5.90;4.70;;;20.30;78.30;;;;;;4942695;29;20588;-85
2023/06/06 06:09:58;;;;;;;6.97;5.20;;;20.20;77.40;;;;;;4958213;28;20479;-83
2023/06/06 06:12:25;;;;;;;6.87;4.80;;;20.20;78.00;;;;;;4951718;28;20468;-84
2023/06/06 06:14:54;;;;;;;8.90;5.00;;;20.30;77.60;;;;;;4952751;28;20490;-83
2023/06/06 06:20:24;;;;;;;5.13;4.63;;;20.20;76.60;;;;;;4956203;29;20457;-82
2023/06/06 06:22:54;;;;;;;4.93;4.50;;;20.10;76.70;;;;;;4961143;28;20458;-84
2023/06/06 06:25:35;;;;;;;8.27;6.57;;;20.00;78.20;;;;;;4989823;28;20508;-84
2023/06/06 06:28:03;;;;;;;5.90;4.63;;;20.40;78.00;;;;;;4966985;28;20511;-81
2023/06/06 06:30:29;;;;;;;6.37;5.27;;;20.30;79.00;;;;;;4955010;28;20966;-84
2023/06/06 06:32:57;;;;;;;8.37;4.80;;;20.20;79.80;;;;;;4954223;29;20468;-84
2023/06/06 06:36:04;;;;;;;8.10;5.77;;;20.20;80.50;;;;;;4965331;28;20488;-83
2023/06/06 06:39:18;;;;;;;8.73;6.10;;;20.30;81.40;;;;;;4964771;28;20488;-82
2023/06/06 06:42:03;;;;;;;7.13;5.40;;;20.20;81.70;;;;;;4978831;28;20461;-82
2023/06/06 06:44:40;;;;;;;10.13;7.87;;;20.10;82.20;;;;;;4966379;28;20456;-84
2023/06/06 06:47:16;;;;;;;7.00;6.30;;;20.40;82.00;;;;;;4966046;28;20444;-83
2023/06/06 06:49:48;;;;;;;7.37;6.23;;;20.70;81.10;;;;;;4969877;28;20484;-82
2023/06/06 06:52:33;;;;;;;8.13;6.50;;;20.60;80.30;;;;;;4958706;28;20532;-83
2023/06/06 06:55:01;;;;;;;9.30;5.90;;;21.00;79.20;;;;;;4962944;28;20474;-82
2023/06/06 06:57:32;;;;;;;7.43;5.67;;;20.80;79.00;;;;;;4958463;29;20438;-83
2023/06/06 07:00:00;;;;;;;8.50;5.90;;;21.00;78.30;;;;;;4961636;28;20464;-82
2023/06/06 07:02:44;;;;;;;7.93;5.93;;;21.00;79.00;;;;;;4968324;28;20464;-82
2023/06/06 07:05:16;;;;;;;9.93;6.20;;;20.90;78.30;;;;;;4962028;29;20471;-81
2023/06/06 07:07:52;;;;;;;9.97;5.43;;;21.00;78.70;;;;;;4959739;29;21005;-81
2023/06/06 07:10:21;;;;;;;8.93;6.00;;;21.00;78.60;;;;;;4948926;29;20790;-81
2023/06/06 07:12:52;;;;;;;7.23;5.87;;;21.10;78.40;;;;;;4952209;28;20425;-80
2023/06/06 07:15:21;;;;;;;7.70;5.77;;;21.10;76.30;;;;;;4952525;29;20694;-80
2023/06/06 07:17:51;;;;;;;9.10;6.13;;;21.20;76.30;;;;;;4952940;28;20548;-80
2023/06/06 07:20:21;;;;;;;6.70;6.00;;;21.20;75.90;;;;;;4949859;29;20483;-79
2023/06/06 07:22:49;;;;;;;7.80;6.20;;;21.10;76.00;;;;;;4954502;29;20435;-82
2023/06/06 07:25:16;;;;;;;11.67;5.73;;;21.20;76.30;;;;;;4957316;28;20453;-82
2023/06/06 07:27:46;;;;;;;6.77;5.70;;;21.50;75.60;;;;;;4943586;28;20505;-83
2023/06/06 07:30:14;;;;;;;6.50;5.83;;;21.50;74.30;;;;;;4946204;29;20456;-80
2023/06/06 07:32:42;;;;;;;7.43;5.53;;;21.50;73.10;;;;;;4943898;28;20459;-81
2023/06/06 07:35:11;;;;;;;7.77;5.53;;;21.60;73.20;;;;;;4957855;28;20476;-82
2023/06/06 07:37:38;;;;;;;8.97;5.90;;;21.90;72.20;;;;;;4941341;29;20934;-83
2023/06/06 07:40:07;;;;;;;6.67;5.90;;;22.00;71.90;;;;;;4944788;28;20449;-83
2023/06/06 07:42:35;;;;;;;6.40;4.90;;;21.90;72.10;;;;;;4957908;28;20438;-83
2023/06/06 07:45:05;;;;;;;6.43;5.60;;;21.90;71.70;;;;;;4950203;29;20425;-82
2023/06/06 07:47:32;;;;;;;6.17;5.20;;;21.80;70.90;;;;;;4944072;29;20491;-82
2023/06/06 07:49:59;;;;;;;8.53;5.40;;;21.90;71.00;;;;;;4943806;28;20453;-81
2023/06/06 07:52:46;;;;;;;9.30;6.83;;;21.90;69.60;;;;;;4945459;29;20454;-81
2023/06/06 07:55:13;;;;;;;8.53;5.80;;;22.00;69.10;;;;;;4942771;28;20449;-81
2023/06/06 07:57:45;;;;;;;7.03;5.97;;;22.00;68.70;;;;;;4942785;29;20521;-82
2023/06/06 08:01:13;;;;;;;7.80;5.30;;;21.90;68.30;;;;;;4941331;28;20445;-83
2023/06/06 08:04:00;;;;;;;8.90;5.47;;;21.90;69.10;;;;;;4943998;28;21047;-83
2023/06/06 08:06:32;;;;;;;5.77;4.83;;;22.20;70.10;;;;;;4954633;28;20456;-83
2023/06/06 08:09:13;;;;;;;6.47;5.03;;;22.50;69.40;;;;;;4941814;29;20473;-82
2023/06/06 08:11:40;;;;;;;7.37;4.87;;;22.70;68.00;;;;;;4936326;28;20897;-84
2023/06/06 08:14:06;;;;;;;6.10;5.03;;;23.30;66.70;;;;;;4941965;28;20505;-82
2023/06/06 08:16:33;;;;;;;5.77;4.93;;;23.20;65.60;;;;;;4943708;28;20492;-83
2023/06/06 08:19:16;;;;;;;;;;;;;;;;;;;;;
2023/06/06 08:21:43;;;;;;;6.23;5.63;;;23.10;65.20;;;;;;4943886;28;20469;-85
2023/06/06 08:24:09;;;;;;;5.80;4.70;;;23.60;63.80;;;;;;4945219;28;20463;-83
2023/06/06 08:26:36;;;;;;;8.07;5.00;;;24.00;62.90;;;;;;4945477;28;20472;-83
2023/06/06 08:29:03;;;;;;;5.83;4.97;;;23.80;62.10;;;;;;4957800;28;20489;-85
2023/06/06 08:31:30;;;;;;;6.33;5.47;;;23.60;62.40;;;;;;4944423;28;20463;-83
2023/06/06 08:33:57;;;;;;;6.33;5.53;;;23.60;61.90;;;;;;4944986;28;20577;-84
2023/06/06 08:36:30;;;;;;;5.50;4.67;;;23.60;61.80;;;;;;4943007;28;20483;-81
2023/06/06 08:39:03;;;;;;;9.33;5.03;;;23.70;61.80;;;;;;4922519;28;20484;-82
2023/06/06 08:41:31;;;;;;;6.30;5.17;;;24.60;61.60;;;;;;4908005;28;20444;-82
2023/06/06 08:44:02;;;;;;;7.40;6.03;;;25.50;58.40;;;;;;4954336;28;20456;-83
2023/06/06 08:46:33;;;;;;;6.03;5.13;;;25.70;57.40;;;;;;4947300;28;20503;-82
2023/06/06 08:49:04;;;;;;;7.27;4.33;;;25.50;56.30;;;;;;4952270;28;20485;-83
2023/06/06 08:51:31;;;;;;;5.50;4.40;;;25.10;57.00;;;;;;4965594;28;20461;-83
2023/06/06 08:54:02;;;;;;;5.37;4.87;;;25.20;56.70;;;;;;4945501;28;20472;-81
2023/06/06 08:56:29;;;;;;;7.90;4.77;;;25.50;57.10;;;;;;4957654;28;20520;-81
2023/06/06 08:59:05;;;;;;;6.20;5.60;;;26.40;55.90;;;;;;4955960;28;20480;-84
2023/06/06 09:01:54;;;;;;;4.70;4.23;;;27.20;54.00;;;;;;4941908;28;20531;-82
2023/06/06 09:04:31;;;;;;;6.10;5.50;;;27.50;53.20;;;;;;4943156;28;21171;-82
2023/06/06 09:07:12;;;;;;;5.83;5.27;;;27.00;53.20;;;;;;4940168;28;20468;-84
2023/06/06 09:09:48;;;;;;;5.13;4.63;;;27.50;53.50;;;;;;4936759;28;20507;-83
2023/06/06 09:12:18;;;;;;;6.30;5.70;;;27.60;53.10;;;;;;4947804;28;20463;-82
2023/06/06 09:14:49;;;;;;;4.90;4.40;;;28.20;50.90;;;;;;4946913;28;20535;-84
2023/06/06 09:17:21;;;;;;;5.37;4.27;;;28.00;51.10;;;;;;4945653;28;20590;-83
2023/06/06 09:19:51;;;;;;;7.13;4.53;;;28.20;51.00;;;;;;4945502;28;20472;-83
2023/06/06 09:22:20;;;;;;;7.30;4.63;;;28.40;49.90;;;;;;4948506;28;20462;-81
2023/06/06 09:24:55;;;;;;;5.40;4.43;;;28.50;49.20;;;;;;4940142;28;20464;-84
2023/06/06 09:27:32;;;;;;;5.00;4.30;;;29.80;46.50;;;;;;4937801;28;20456;-82
2023/06/06 09:30:00;;;;;;;13.70;5.53;;;30.60;44.70;;;;;;4944251;28;20479;-84
2023/06/06 09:32:32;;;;;;;4.13;3.53;;;30.60;43.50;;;;;;4955288;28;20470;-84
2023/06/06 09:35:04;;;;;;;4.83;4.40;;;31.10;42.40;;;;;;4944924;28;20461;-82
2023/06/06 09:37:43;;;;;;;4.23;3.93;;;31.20;41.20;;;;;;4945130;28;20503;-83
2023/06/06 09:40:17;;;;;;;5.53;4.10;;;31.20;41.30;;;;;;4951388;28;20469;-81
2023/06/06 09:42:52;;;;;;;4.07;3.77;;;31.30;41.30;;;;;;4947466;28;20476;-83
2023/06/06 09:45:21;;;;;;;3.70;3.40;;;32.50;39.40;;;;;;4935250;28;20519;-82
2023/06/06 09:48:02;;;;;;;4.60;3.57;;;33.20;36.90;;;;;;4935316;28;20492;-84
2023/06/06 09:50:35;;;;;;;5.67;3.50;;;32.30;37.80;;;;;;4937015;28;21078;-84
2023/06/06 09:53:16;;;;;;;3.43;3.13;;;32.20;38.80;;;;;;4936359;28;20465;-83
2023/06/06 09:56:16;;;;;;;3.87;3.43;;;32.50;37.60;;;;;;4937609;28;20938;-84
2023/06/06 09:58:46;;;;;;;3.83;2.93;;;32.60;37.70;;;;;;4941452;28;21002;-84
2023/06/06 10:01:14;;;;;;;3.00;2.80;;;33.00;37.10;;;;;;4953173;28;20484;-83
2023/06/06 10:03:41;;;;;;;3.83;3.23;;;33.10;36.00;;;;;;4953549;28;21832;-83
2023/06/06 10:06:09;;;;;;;2.77;2.57;;;32.80;36.20;;;;;;4946801;29;20491;-82
2023/06/06 10:08:41;;;;;;;3.83;3.53;;;33.20;36.30;;;;;;4952418;28;20547;-82
2023/06/06 10:11:12;;;;;;;2.90;2.70;;;35.00;33.80;;;;;;4953437;28;20472;-82
2023/06/06 10:13:39;;;;;;;2.93;2.63;;;34.90;33.90;;;;;;4959333;28;20463;-82
2023/06/06 10:16:19;;;;;;;3.60;3.30;;;35.10;32.70;;;;;;4943477;28;20572;-83
2023/06/06 10:18:48;;;;;;;4.37;2.67;;;35.40;32.40;;;;;;4940397;28;20492;-83
2023/06/06 10:21:18;;;;;;;3.80;3.03;;;35.10;32.40;;;;;;4942594;28;20975;-83
2023/06/06 10:23:58;;;;;;;3.00;2.80;;;34.40;33.00;;;;;;4956946;28;20451;-84
2023/06/06 10:26:50;;;;;;;3.53;3.10;;;34.20;33.10;;;;;;4942397;28;20453;-83
2023/06/06 10:30:06;;;;;;;4.10;3.10;;;33.30;33.60;;;;;;4889826;28;20491;-83
2023/06/06 10:33:22;;;;;;;3.70;3.40;;;33.00;34.50;;;;;;4941590;28;21109;-82
2023/06/06 10:36:02;;;;;;;3.27;3.03;;;33.00;34.30;;;;;;4940294;28;20535;-83
2023/06/06 10:38:39;;;;;;;2.90;2.70;;;32.80;35.00;;;;;;4955492;28;20587;-84
2023/06/06 10:41:23;;;;;;;3.40;3.10;;;34.30;34.50;;;;;;4941618;28;20466;-83
2023/06/06 10:44:27;;;;;;;3.67;3.30;;;34.40;34.10;;;;;;4942651;28;20464;-85
2023/06/06 10:47:41;;;;;;;3.43;3.23;;;35.10;33.40;;;;;;4941320;29;20462;-83
2023/06/06 10:50:15;;;;;;;3.90;3.50;;;35.00;33.30;;;;;;4940055;29;20467;-81
2023/06/06 10:56:03;;;;;;;4.10;3.70;;;34.00;35.10;;;;;;4944485;29;20458;-83
2023/06/06 10:58:37;;;;;;;4.27;3.87;;;33.90;35.60;;;;;;4955915;28;20995;-84
2023/06/06 11:01:07;;;;;;;4.30;3.13;;;33.10;36.40;;;;;;4943227;28;20456;-84
2023/06/06 11:03:41;;;;;;;4.13;3.13;;;33.10;37.00;;;;;;4942168;29;20455;-83
2023/06/06 11:06:15;;;;;;;3.90;3.53;;;33.00;36.90;;;;;;4940282;29;20460;-84
2023/06/06 11:08:58;;;;;;;4.27;3.87;;;33.50;36.50;;;;;;4912357;28;20583;-84
2023/06/06 11:11:48;;;;;;;3.90;3.60;;;33.10;36.20;;;;;;4940148;28;20551;-85
2023/06/06 11:14:43;;;;;;;3.57;3.27;;;33.80;36.70;;;;;;4946813;28;20469;-84
2023/06/06 11:17:30;;;;;;;4.07;3.67;;;34.00;36.80;;;;;;4954647;28;20487;-84
2023/06/06 11:20:10;;;;;;;3.30;3.10;;;34.30;36.30;;;;;;4962203;28;20460;-83
2023/06/06 11:22:59;;;;;;;4.00;3.70;;;34.20;35.40;;;;;;4942821;28;20456;-84
2023/06/06 11:25:47;;;;;;;3.50;3.30;;;33.80;35.00;;;;;;4941424;28;21210;-84
2023/06/06 11:28:47;;;;;;;3.60;3.30;;;33.10;35.80;;;;;;4960664;28;20461;-82
2023/06/06 11:31:39;;;;;;;4.73;3.80;;;32.40;37.30;;;;;;4944354;28;20544;-83
2023/06/06 11:34:34;;;;;;;;;;;;;;;;;;;;;
2023/06/06 11:37:32;;;;;;;2.93;2.73;;;32.00;37.50;;;;;;4946993;28;20484;-84
2023/06/06 11:40:19;;;;;;;3.20;2.90;;;32.60;37.00;;;;;;4944298;28;20464;-83
2023/06/06 11:43:18;;;;;;;3.70;3.20;;;33.70;34.20;;;;;;4941398;28;20475;-82
2023/06/06 11:46:11;;;;;;;3.13;2.87;;;34.50;31.90;;;;;;4960218;28;20547;-84
2023/06/06 11:48:46;;;;;;;4.27;3.97;;;34.00;33.20;;;;;;4946196;28;20491;-84
2023/06/06 11:51:50;;;;;;;3.30;3.00;;;33.30;34.40;;;;;;4958809;28;21011;-84
2023/06/06 11:55:14;;;;;;;2.93;2.60;;;33.20;34.70;;;;;;4945458;28;20449;-84
2023/06/06 11:58:11;;;;;;;4.10;2.93;;;32.80;34.60;;;;;;4949820;28;20499;-85
2023/06/06 12:01:15;;;;;;;3.60;3.30;;;33.00;35.20;;;;;;4941325;28;20442;-84
2023/06/06 12:04:01;;;;;;;3.07;2.87;;;32.60;34.50;;;;;;4946112;28;20488;-83
2023/06/06 12:07:35;;;;;;;3.13;2.83;;;31.80;36.00;;;;;;4946560;28;20460;-83
2023/06/06 12:10:09;;;;;;;3.53;3.23;;;31.50;36.40;;;;;;4948261;28;20588;-83
2023/06/06 12:13:02;;;;;;;3.50;3.20;;;30.90;36.30;;;;;;4942906;28;20452;-82
2023/06/06 12:15:50;;;;;;;4.33;3.83;;;30.40;37.30;;;;;;4943174;28;20464;-83
2023/06/06 12:18:25;;;;;;;3.90;3.60;;;29.90;38.40;;;;;;4943230;28;20512;-83
2023/06/06 12:21:06;;;;;;;13.30;4.67;;;29.70;38.70;;;;;;4937568;29;20481;-83
2023/06/06 12:23:44;;;;;;;4.03;3.60;;;29.40;39.30;;;;;;4952635;28;20453;-82
2023/06/06 12:26:51;;;;;;;3.93;3.53;;;29.40;39.30;;;;;;4937412;28;20444;-82
2023/06/06 12:29:27;;;;;;;4.20;3.40;;;29.10;40.10;;;;;;4940330;28;20481;-82
2023/06/06 12:32:15;;;;;;;4.33;2.90;;;28.90;40.00;;;;;;4940731;28;20483;-82
2023/06/06 12:35:01;;;;;;;5.00;3.20;;;29.10;38.80;;;;;;4940467;28;20524;-84
2023/06/06 12:37:44;;;;;;;7.10;3.43;;;28.90;39.10;;;;;;4938736;28;20503;-82
2023/06/06 12:40:33;;;;;;;3.33;3.00;;;28.70;39.80;;;;;;4938213;29;20467;-82
2023/06/06 12:43:07;;;;;;;3.07;2.80;;;28.70;39.50;;;;;;4938785;29;20440;-83
2023/06/06 12:45:53;;;;;;;3.20;2.90;;;28.50;39.90;;;;;;4951593;28;20568;-82
2023/06/06 12:48:52;;;;;;;3.50;3.20;;;28.30;40.40;;;;;;4961487;28;20476;-82
2023/06/06 12:51:25;;;;;;;3.83;3.20;;;28.20;40.20;;;;;;4948831;29;20465;-81
2023/06/06 12:53:56;;;;;;;4.20;3.17;;;28.30;40.20;;;;;;4961652;28;20461;-82
2023/06/06 12:56:36;;;;;;;3.10;2.80;;;28.40;38.80;;;;;;4955846;28;21022;-83
2023/06/06 12:59:17;;;;;;;3.90;2.70;;;28.40;39.00;;;;;;4941332;28;20480;-83
2023/06/06 13:02:16;;;;;;;4.17;3.10;;;28.80;38.60;;;;;;4955736;28;20453;-84
2023/06/06 13:08:10;;;;;;;4.23;2.93;;;29.40;37.40;;;;;;4942726;28;20563;-84
2023/06/06 13:11:07;;;;;;;3.47;2.97;;;30.50;36.00;;;;;;4942995;28;22439;-82
2023/06/06 13:14:01;;;;;;;3.00;2.50;;;30.40;36.30;;;;;;4945446;28;20485;-82
2023/06/06 13:16:43;;;;;;;3.20;2.90;;;30.30;35.30;;;;;;4944641;29;20469;-84
2023/06/06 13:19:33;;;;;;;3.50;3.10;;;30.10;35.00;;;;;;4941961;28;20456;-82
2023/06/06 13:22:00;;;;;;;3.20;2.87;;;30.40;34.90;;;;;;4944546;29;20972;-84
2023/06/06 13:24:40;;;;;;;3.50;2.97;;;30.30;34.70;;;;;;4945871;28;20516;-83
2023/06/06 13:27:10;;;;;;;3.20;2.93;;;30.30;34.70;;;;;;4945216;28;20972;-83
2023/06/06 13:30:12;;;;;;;4.10;3.10;;;30.10;34.30;;;;;;4957843;28;20488;-82
2023/06/06 13:33:05;;;;;;;3.90;3.50;;;30.10;34.80;;;;;;4944235;29;20465;-83
2023/06/06 13:35:49;;;;;;;2.50;2.30;;;29.80;34.80;;;;;;4944615;29;20497;-82
2023/06/06 13:38:26;;;;;;;5.27;2.80;;;29.80;35.50;;;;;;4945860;28;20489;-83